sensor_id;sensor_type;location;lat;lon;timestamp;pressure;altitude;pressure_sealevel;temperature
15709;BMP180;7954;51.914;8.420;2022-12-11T00:00:54;99863.88;;;9.15
15709;BMP180;7954;51.914;8.420;2022-12-11T00:03:26;99861.59;;;9.16
15709;BMP180;7954;51.914;8.420;2022-12-11T00:05:54;99857.47;;;9.17
15709;BMP180;7954;51.914;8.420;2022-12-11T00:08:23;99854.97;;;9.17
15709;BMP180;7954;51.914;8.420;2022-12-11T00:10:50;99863.03;;;9.20
15709;BMP180;7954;51.914;8.420;2022-12-11T00:13:18;99857.31;;;9.21
15709;BMP180;7954;51.914;8.420;2022-12-11T00:15:47;99860.94;;;9.17
15709;BMP180;7954;51.914;8.420;2022-12-11T00:18:15;99854.06;;;9.16
15709;BMP180;7954;51.914;8.420;2022-12-11T00:20:44;99860.50;;;9.20
15709;BMP180;7954;51.914;8.420;2022-12-11T00:23:13;99854.59;;;9.25
15709;BMP180;7954;51.914;8.420;2022-12-11T00:25:42;99857.13;;;9.25
15709;BMP180;7954;51.914;8.420;2022-12-11T00:28:11;99860.31;;;9.24
15709;BMP180;7954;51.914;8.420;2022-12-11T00:30:41;99858.22;;;9.21
15709;BMP180;7954;51.914;8.420;2022-12-11T00:33:11;99858.00;;;9.20
15709;BMP180;7954;51.914;8.420;2022-12-11T00:35:41;99852.28;;;9.21
15709;BMP180;7954;51.914;8.420;2022-12-11T00:38:14;99858.00;;;9.20
15709;BMP180;7954;51.914;8.420;2022-12-11T00:40:43;99857.56;;;9.22
15709;BMP180;7954;51.914;8.420;2022-12-11T00:43:11;99855.94;;;9.23
15709;BMP180;7954;51.914;8.420;2022-12-11T00:45:40;99862.59;;;9.22
15709;BMP180;7954;51.914;8.420;2022-12-11T00:48:11;99872.00;;;9.23
15709;BMP180;7954;51.914;8.420;2022-12-11T00:50:40;99865.09;;;9.22
15709;BMP180;7954;51.914;8.420;2022-12-11T00:53:09;99868.06;;;9.20
15709;BMP180;7954;51.914;8.420;2022-12-11T00:55:39;99876.94;;;9.18
15709;BMP180;7954;51.914;8.420;2022-12-11T00:58:10;99877.63;;;9.17
15709;BMP180;7954;51.914;8.420;2022-12-11T01:00:39;99878.81;;;9.19
15709;BMP180;7954;51.914;8.420;2022-12-11T01:03:08;99880.13;;;9.17
15709;BMP180;7954;51.914;8.420;2022-12-11T01:05:36;99870.78;;;9.16
15709;BMP180;7954;51.914;8.420;2022-12-11T01:08:04;99872.78;;;9.13
15709;BMP180;7954;51.914;8.420;2022-12-11T01:10:33;99875.25;;;9.07
15709;BMP180;7954;51.914;8.420;2022-12-11T01:13:05;99873.81;;;9.04
15709;BMP180;7954;51.914;8.420;2022-12-11T01:15:39;99887.59;;;9.06
15709;BMP180;7954;51.914;8.420;2022-12-11T01:18:07;99871.13;;;9.08
15709;BMP180;7954;51.914;8.420;2022-12-11T01:20:36;99877.81;;;9.13
15709;BMP180;7954;51.914;8.420;2022-12-11T01:23:04;99879.00;;;9.15
15709;BMP180;7954;51.914;8.420;2022-12-11T01:25:34;99873.44;;;9.12
15709;BMP180;7954;51.914;8.420;2022-12-11T01:28:05;99869.25;;;9.07
15709;BMP180;7954;51.914;8.420;2022-12-11T01:30:33;99866.50;;;9.05
15709;BMP180;7954;51.914;8.420;2022-12-11T01:33:02;99869.22;;;9.01
15709;BMP180;7954;51.914;8.420;2022-12-11T01:35:31;99872.22;;;9.04
15709;BMP180;7954;51.914;8.420;2022-12-11T01:37:59;99875.25;;;9.07
15709;BMP180;7954;51.914;8.420;2022-12-11T01:40:26;99870.88;;;9.06
15709;BMP180;7954;51.914;8.420;2022-12-11T01:42:55;99866.03;;;9.02
15709;BMP180;7954;51.914;8.420;2022-12-11T01:45:29;99866.94;;;9.03
15709;BMP180;7954;51.914;8.420;2022-12-11T01:48:05;99877.00;;;9.03
15709;BMP180;7954;51.914;8.420;2022-12-11T01:50:38;99872.50;;;9.06
15709;BMP180;7954;51.914;8.420;2022-12-11T01:53:09;99874.31;;;9.07
15709;BMP180;7954;51.914;8.420;2022-12-11T01:55:39;99875.28;;;9.13
15709;BMP180;7954;51.914;8.420;2022-12-11T01:58:09;99877.81;;;9.13
15709;BMP180;7954;51.914;8.420;2022-12-11T02:00:39;99871.53;;;9.05
15709;BMP180;7954;51.914;8.420;2022-12-11T02:03:07;99870.56;;;8.99
15709;BMP180;7954;51.914;8.420;2022-12-11T02:05:36;99880.09;;;8.91
15709;BMP180;7954;51.914;8.420;2022-12-11T02:08:05;99878.66;;;8.88
15709;BMP180;7954;51.914;8.420;2022-12-11T02:10:51;99873.88;;;8.89
15709;BMP180;7954;51.914;8.420;2022-12-11T02:13:27;99869.03;;;8.85
15709;BMP180;7954;51.914;8.420;2022-12-11T02:16:04;99867.19;;;8.84
15709;BMP180;7954;51.914;8.420;2022-12-11T02:18:36;99856.13;;;8.78
15709;BMP180;7954;51.914;8.420;2022-12-11T02:21:09;99859.41;;;8.83
15709;BMP180;7954;51.914;8.420;2022-12-11T02:26:43;99851.03;;;8.93
15709;BMP180;7954;51.914;8.420;2022-12-11T02:29:19;99851.84;;;9.03
15709;BMP180;7954;51.914;8.420;2022-12-11T02:31:53;99847.00;;;8.99
15709;BMP180;7954;51.914;8.420;2022-12-11T02:34:29;99853.03;;;9.05
15709;BMP180;7954;51.914;8.420;2022-12-11T02:37:02;99843.84;;;9.05
15709;BMP180;7954;51.914;8.420;2022-12-11T02:39:34;99845.38;;;8.99
15709;BMP180;7954;51.914;8.420;2022-12-11T02:42:03;99849.09;;;9.01
15709;BMP180;7954;51.914;8.420;2022-12-11T02:44:35;99847.00;;;8.99
15709;BMP180;7954;51.914;8.420;2022-12-11T02:47:08;99844.47;;;8.99
15709;BMP180;7954;51.914;8.420;2022-12-11T02:49:39;99845.38;;;8.99
15709;BMP180;7954;51.914;8.420;2022-12-11T02:52:11;99844.94;;;9.02
15709;BMP180;7954;51.914;8.420;2022-12-11T02:54:41;99847.00;;;8.99
15709;BMP180;7954;51.914;8.420;2022-12-11T02:57:13;99843.47;;;8.93
15709;BMP180;7954;51.914;8.420;2022-12-11T02:59:45;99844.84;;;8.91
15709;BMP180;7954;51.914;8.420;2022-12-11T03:02:14;99831.09;;;8.89
15709;BMP180;7954;51.914;8.420;2022-12-11T03:04:44;99838.22;;;8.92
15709;BMP180;7954;51.914;8.420;2022-12-11T03:07:15;99839.31;;;8.88
15709;BMP180;7954;51.914;8.420;2022-12-11T03:09:46;99841.97;;;8.79
15709;BMP180;7954;51.914;8.420;2022-12-11T03:12:17;99841.72;;;8.62
15709;BMP180;7954;51.914;8.420;2022-12-11T03:14:48;99836.69;;;8.62
15709;BMP180;7954;51.914;8.420;2022-12-11T03:17:18;99844.56;;;8.69
15709;BMP180;7954;51.914;8.420;2022-12-11T03:19:53;99847.44;;;8.76
15709;BMP180;7954;51.914;8.420;2022-12-11T03:22:26;99838.25;;;8.77
15709;BMP180;7954;51.914;8.420;2022-12-11T03:25:01;99851.09;;;8.78
15709;BMP180;7954;51.914;8.420;2022-12-11T03:27:32;99847.44;;;8.76
15709;BMP180;7954;51.914;8.420;2022-12-11T03:30:07;99846.44;;;8.70
15709;BMP180;7954;51.914;8.420;2022-12-11T03:32:39;99855.63;;;8.75
15709;BMP180;7954;51.914;8.420;2022-12-11T03:35:15;99855.50;;;8.64
15709;BMP180;7954;51.914;8.420;2022-12-11T03:37:45;99864.38;;;8.62
15709;BMP180;7954;51.914;8.420;2022-12-11T03:40:16;99853.41;;;8.62
15709;BMP180;7954;51.914;8.420;2022-12-11T03:42:48;99859.44;;;8.68
15709;BMP180;7954;51.914;8.420;2022-12-11T03:45:19;99853.47;;;8.67
15709;BMP180;7954;51.914;8.420;2022-12-11T03:47:51;99851.13;;;8.63
15709;BMP180;7954;51.914;8.420;2022-12-11T03:50:22;99856.09;;;8.58
15709;BMP180;7954;51.914;8.420;2022-12-11T03:52:52;99855.16;;;8.57
15709;BMP180;7954;51.914;8.420;2022-12-11T03:55:22;99855.50;;;8.64
15709;BMP180;7954;51.914;8.420;2022-12-11T03:57:50;99853.81;;;8.59
15709;BMP180;7954;51.914;8.420;2022-12-11T04:00:20;99848.78;;;8.59
15709;BMP180;7954;51.914;8.420;2022-12-11T04:02:49;99858.50;;;8.67
15709;BMP180;7954;51.914;8.420;2022-12-11T04:05:38;99855.50;;;8.64
15709;BMP180;7954;51.914;8.420;2022-12-11T04:08:06;99856.59;;;8.61
15709;BMP180;7954;51.914;8.420;2022-12-11T04:10:35;99858.16;;;8.75
15709;BMP180;7954;51.914;8.420;2022-12-11T04:13:06;99852.50;;;8.82
15709;BMP180;7954;51.914;8.420;2022-12-11T04:15:36;99859.88;;;8.86
15709;BMP180;7954;51.914;8.420;2022-12-11T04:18:03;99851.22;;;8.89
15709;BMP180;7954;51.914;8.420;2022-12-11T04:20:52;99856.22;;;8.84
15709;BMP180;7954;51.914;8.420;2022-12-11T04:23:37;99855.50;;;8.85
15709;BMP180;7954;51.914;8.420;2022-12-11T04:26:22;99846.19;;;8.89
15709;BMP180;7954;51.914;8.420;2022-12-11T04:28:50;99847.53;;;8.87
15709;BMP180;7954;51.914;8.420;2022-12-11T04:31:20;99845.75;;;8.92
15709;BMP180;7954;51.914;8.420;2022-12-11T04:33:49;99842.63;;;8.98
15709;BMP180;7954;51.914;8.420;2022-12-11T04:36:17;99845.91;;;9.02
15709;BMP180;7954;51.914;8.420;2022-12-11T04:38:45;99836.72;;;9.03
15709;BMP180;7954;51.914;8.420;2022-12-11T04:41:14;99844.72;;;9.00
15709;BMP180;7954;51.914;8.420;2022-12-11T04:43:42;99842.88;;;8.99
15709;BMP180;7954;51.914;8.420;2022-12-11T04:46:13;99840.72;;;8.92
15709;BMP180;7954;51.914;8.420;2022-12-11T04:48:44;99854.16;;;8.87
15709;BMP180;7954;51.914;8.420;2022-12-11T04:51:12;99854.78;;;8.80
15709;BMP180;7954;51.914;8.420;2022-12-11T04:53:40;99854.78;;;8.80
15709;BMP180;7954;51.914;8.420;2022-12-11T04:56:11;99843.78;;;8.80
15709;BMP180;7954;51.914;8.420;2022-12-11T04:58:41;99844.34;;;8.68
15709;BMP180;7954;51.914;8.420;2022-12-11T05:01:10;99840.41;;;8.64
15709;BMP180;7954;51.914;8.420;2022-12-11T05:03:39;99848.63;;;8.63
15709;BMP180;7954;51.914;8.420;2022-12-11T05:06:10;99849.13;;;8.66
15709;BMP180;7954;51.914;8.420;2022-12-11T05:08:40;99845.28;;;8.53
15709;BMP180;7954;51.914;8.420;2022-12-11T05:11:11;99854.69;;;8.39
15709;BMP180;7954;51.914;8.420;2022-12-11T05:13:40;99848.00;;;8.34
15709;BMP180;7954;51.914;8.420;2022-12-11T05:16:10;99850.53;;;8.20
15709;BMP180;7954;51.914;8.420;2022-12-11T05:18:38;99850.84;;;8.12
15709;BMP180;7954;51.914;8.420;2022-12-11T05:21:09;99849.53;;;8.14
15709;BMP180;7954;51.914;8.420;2022-12-11T05:23:39;99847.31;;;8.06
15709;BMP180;7954;51.914;8.420;2022-12-11T05:26:10;99845.47;;;8.05
15709;BMP180;7954;51.914;8.420;2022-12-11T05:28:39;99847.16;;;8.10
15709;BMP180;7954;51.914;8.420;2022-12-11T05:31:11;99845.47;;;8.05
15709;BMP180;7954;51.914;8.420;2022-12-11T05:33:39;99846.97;;;7.99
15709;BMP180;7954;51.914;8.420;2022-12-11T05:36:07;99847.38;;;7.81
15709;BMP180;7954;51.914;8.420;2022-12-11T05:38:35;99848.16;;;7.86
15709;BMP180;7954;51.914;8.420;2022-12-11T05:41:05;99845.22;;;7.88
15709;BMP180;7954;51.914;8.420;2022-12-11T05:43:35;99848.34;;;7.97
15709;BMP180;7954;51.914;8.420;2022-12-11T05:46:05;99845.22;;;7.88
15709;BMP180;7954;51.914;8.420;2022-12-11T05:48:35;99852.00;;;7.99
15709;BMP180;7954;51.914;8.420;2022-12-11T05:51:04;99847.91;;;7.99
15709;BMP180;7954;51.914;8.420;2022-12-11T05:53:33;99855.03;;;8.02
15709;BMP180;7954;51.914;8.420;2022-12-11T05:56:02;99848.00;;;8.05
15709;BMP180;7954;51.914;8.420;2022-12-11T05:58:32;99843.13;;;8.01
15709;BMP180;7954;51.914;8.420;2022-12-11T06:01:06;99847.09;;;8.04
15709;BMP180;7954;51.914;8.420;2022-12-11T06:03:34;99842.78;;;8.09
15709;BMP180;7954;51.914;8.420;2022-12-11T06:06:03;99840.66;;;8.16
15709;BMP180;7954;51.914;8.420;2022-12-11T06:08:32;99848.59;;;8.28
15709;BMP180;7954;51.914;8.420;2022-12-11T06:11:02;99838.72;;;8.39
15709;BMP180;7954;51.914;8.420;2022-12-11T06:13:33;99839.53;;;8.49
15709;BMP180;7954;51.914;8.420;2022-12-11T06:16:03;99840.16;;;8.63
15709;BMP180;7954;51.914;8.420;2022-12-11T06:18:34;99836.84;;;8.73
15709;BMP180;7954;51.914;8.420;2022-12-11T06:21:10;99822.75;;;8.79
15709;BMP180;7954;51.914;8.420;2022-12-11T06:23:38;99814.94;;;8.78
15709;BMP180;7954;51.914;8.420;2022-12-11T06:26:07;99816.47;;;8.72
15709;BMP180;7954;51.914;8.420;2022-12-11T06:28:36;99818.25;;;8.67
15709;BMP180;7954;51.914;8.420;2022-12-11T06:31:05;99824.88;;;8.67
15709;BMP180;7954;51.914;8.420;2022-12-11T06:33:34;99829.91;;;8.67
15709;BMP180;7954;51.914;8.420;2022-12-11T06:36:04;99827.16;;;8.65
15709;BMP180;7954;51.914;8.420;2022-12-11T06:38:33;99821.19;;;8.65
15709;BMP180;7954;51.914;8.420;2022-12-11T06:41:03;99820.69;;;8.41
15709;BMP180;7954;51.914;8.420;2022-12-11T06:43:31;99831.44;;;8.26
15709;BMP180;7954;51.914;8.420;2022-12-11T06:46:03;99831.25;;;8.15
15709;BMP180;7954;51.914;8.420;2022-12-11T06:48:32;99827.44;;;8.17
15709;BMP180;7954;51.914;8.420;2022-12-11T06:51:04;99817.00;;;8.25
15709;BMP180;7954;51.914;8.420;2022-12-11T06:53:33;99832.75;;;8.24
15709;BMP180;7954;51.914;8.420;2022-12-11T06:56:02;99827.06;;;8.25
15709;BMP180;7954;51.914;8.420;2022-12-11T06:58:33;99821.19;;;8.30
15709;BMP180;7954;51.914;8.420;2022-12-11T07:01:03;99829.50;;;8.34
15709;BMP180;7954;51.914;8.420;2022-12-11T07:03:31;99820.69;;;8.41
15709;BMP180;7954;51.914;8.420;2022-12-11T07:06:00;99826.94;;;8.49
15709;BMP180;7954;51.914;8.420;2022-12-11T07:08:28;99825.06;;;8.63
15709;BMP180;7954;51.914;8.420;2022-12-11T07:11:02;99820.31;;;8.70
15709;BMP180;7954;51.914;8.420;2022-12-11T07:13:30;99816.81;;;8.79
15709;BMP180;7954;51.914;8.420;2022-12-11T07:15:59;99826.97;;;8.69
15709;BMP180;7954;51.914;8.420;2022-12-11T07:18:31;99832.03;;;8.19
15709;BMP180;7954;51.914;8.420;2022-12-11T07:20:59;99833.25;;;8.12
15709;BMP180;7954;51.914;8.420;2022-12-11T07:23:27;99848.16;;;8.01
15709;BMP180;7954;51.914;8.420;2022-12-11T07:25:55;99849.72;;;8.00
15709;BMP180;7954;51.914;8.420;2022-12-11T07:28:24;99847.22;;;8.00
15709;BMP180;7954;51.914;8.420;2022-12-11T07:30:52;99844.41;;;7.93
15709;BMP180;7954;51.914;8.420;2022-12-11T07:33:20;99847.31;;;7.76
15709;BMP180;7954;51.914;8.420;2022-12-11T07:35:49;99852.16;;;7.80
15709;BMP180;7954;51.914;8.420;2022-12-11T07:38:17;99859.78;;;7.85
15709;BMP180;7954;51.914;8.420;2022-12-11T07:40:45;99861.31;;;7.79
15709;BMP180;7954;51.914;8.420;2022-12-11T07:43:13;99856.00;;;7.78
15709;BMP180;7954;51.914;8.420;2022-12-11T07:45:41;99854.84;;;7.76
15709;BMP180;7954;51.914;8.420;2022-12-11T07:48:08;99854.69;;;7.80
15709;BMP180;7954;51.914;8.420;2022-12-11T07:50:38;99856.00;;;7.93
15709;BMP180;7954;51.914;8.420;2022-12-11T07:53:08;99849.19;;;7.92
15709;BMP180;7954;51.914;8.420;2022-12-11T07:55:36;99856.00;;;7.93
15709;BMP180;7954;51.914;8.420;2022-12-11T07:58:04;99860.56;;;7.90
15709;BMP180;7954;51.914;8.420;2022-12-11T08:00:32;99855.69;;;7.86
15709;BMP180;7954;51.914;8.420;2022-12-11T08:03:00;99856.53;;;7.96
15709;BMP180;7954;51.914;8.420;2022-12-11T08:05:28;99860.72;;;8.01
15709;BMP180;7954;51.914;8.420;2022-12-11T08:07:56;99856.38;;;8.00
15709;BMP180;7954;51.914;8.420;2022-12-11T08:10:26;99856.00;;;7.93
15709;BMP180;7954;51.914;8.420;2022-12-11T08:12:53;99864.16;;;8.01
15709;BMP180;7954;51.914;8.420;2022-12-11T08:15:22;99863.50;;;8.02
15709;BMP180;7954;51.914;8.420;2022-12-11T08:17:50;99859.47;;;7.93
15709;BMP180;7954;51.914;8.420;2022-12-11T08:20:18;99862.88;;;7.79
15709;BMP180;7954;51.914;8.420;2022-12-11T08:22:46;99867.59;;;7.72
15709;BMP180;7954;51.914;8.420;2022-12-11T08:25:14;99861.03;;;7.78
15709;BMP180;7954;51.914;8.420;2022-12-11T08:27:43;99871.59;;;7.81
15709;BMP180;7954;51.914;8.420;2022-12-11T08:30:12;99867.19;;;7.89
15709;BMP180;7954;51.914;8.420;2022-12-11T08:32:40;99862.66;;;7.92
15709;BMP180;7954;51.914;8.420;2022-12-11T08:35:08;99867.59;;;7.87
15709;BMP180;7954;51.914;8.420;2022-12-11T08:37:37;99867.25;;;7.80
15709;BMP180;7954;51.914;8.420;2022-12-11T08:40:07;99871.91;;;7.73
15709;BMP180;7954;51.914;8.420;2022-12-11T08:42:36;99875.81;;;7.62
15709;BMP180;7954;51.914;8.420;2022-12-11T08:45:07;99876.78;;;7.62
15709;BMP180;7954;51.914;8.420;2022-12-11T08:47:36;99870.63;;;7.65
15709;BMP180;7954;51.914;8.420;2022-12-11T08:50:05;99873.13;;;7.51
15709;BMP180;7954;51.914;8.420;2022-12-11T08:52:33;99871.22;;;7.59
15709;BMP180;7954;51.914;8.420;2022-12-11T08:55:02;99872.75;;;7.68
15709;BMP180;7954;51.914;8.420;2022-12-11T08:57:30;99870.09;;;7.72
15709;BMP180;7954;51.914;8.420;2022-12-11T08:59:58;99874.84;;;7.70
15709;BMP180;7954;51.914;8.420;2022-12-11T09:02:27;99870.09;;;7.72
15709;BMP180;7954;51.914;8.420;2022-12-11T09:04:55;99873.88;;;7.79
15709;BMP180;7954;51.914;8.420;2022-12-11T09:07:23;99878.97;;;7.85
15709;BMP180;7954;51.914;8.420;2022-12-11T09:09:53;99880.72;;;7.80
15709;BMP180;7954;51.914;8.420;2022-12-11T09:12:21;99873.09;;;7.75
15709;BMP180;7954;51.914;8.420;2022-12-11T09:14:49;99869.84;;;7.85
15709;BMP180;7954;51.914;8.420;2022-12-11T09:17:17;99864.75;;;7.95
15709;BMP180;7954;51.914;8.420;2022-12-11T09:19:47;99863.72;;;8.04
15709;BMP180;7954;51.914;8.420;2022-12-11T09:22:15;99860.13;;;8.07
15709;BMP180;7954;51.914;8.420;2022-12-11T09:24:43;99865.41;;;7.94
15709;BMP180;7954;51.914;8.420;2022-12-11T09:27:12;99867.66;;;7.77
15709;BMP180;7954;51.914;8.420;2022-12-11T09:29:40;99876.38;;;7.65
15709;BMP180;7954;51.914;8.420;2022-12-11T09:32:09;99867.72;;;7.68
15709;BMP180;7954;51.914;8.420;2022-12-11T09:34:37;99873.94;;;7.70
15709;BMP180;7954;51.914;8.420;2022-12-11T09:37:06;99868.09;;;7.90
15709;BMP180;7954;51.914;8.420;2022-12-11T09:39:34;99863.56;;;8.08
15709;BMP180;7954;51.914;8.420;2022-12-11T09:42:07;99859.56;;;8.29
15709;BMP180;7954;51.914;8.420;2022-12-11T09:44:40;99841.94;;;8.43
15709;BMP180;7954;51.914;8.420;2022-12-11T09:47:19;99839.41;;;8.58
15709;BMP180;7954;51.914;8.420;2022-12-11T09:49:50;99834.19;;;8.62
15709;BMP180;7954;51.914;8.420;2022-12-11T09:52:29;99826.97;;;8.69
15709;BMP180;7954;51.914;8.420;2022-12-11T09:55:02;99830.91;;;8.73
15709;BMP180;7954;51.914;8.420;2022-12-11T09:57:38;99831.81;;;8.73
15709;BMP180;7954;51.914;8.420;2022-12-11T10:00:18;99832.25;;;8.71
15709;BMP180;7954;51.914;8.420;2022-12-11T10:03:01;99833.41;;;8.73
15709;BMP180;7954;51.914;8.420;2022-12-11T10:05:37;99842.19;;;8.80
15709;BMP180;7954;51.914;8.420;2022-12-11T10:08:13;99828.25;;;8.82
15709;BMP180;7954;51.914;8.420;2022-12-11T10:10:48;99821.44;;;8.87
15709;BMP180;7954;51.914;8.420;2022-12-11T10:13:24;99826.38;;;8.96
15709;BMP180;7954;51.914;8.420;2022-12-11T10:15:58;99818.69;;;9.05
15709;BMP180;7954;51.914;8.420;2022-12-11T10:18:27;99813.00;;;9.12
15709;BMP180;7954;51.914;8.420;2022-12-11T10:21:00;99812.16;;;9.17
15709;BMP180;7954;51.914;8.420;2022-12-11T10:23:33;99809.03;;;9.23
15709;BMP180;7954;51.914;8.420;2022-12-11T10:26:05;99805.91;;;9.30
15709;BMP180;7954;51.914;8.420;2022-12-11T10:28:34;99809.56;;;9.32
15709;BMP180;7954;51.914;8.420;2022-12-11T10:31:09;99807.78;;;9.36
15709;BMP180;7954;51.914;8.420;2022-12-11T10:33:49;99811.72;;;9.40
15709;BMP180;7954;51.914;8.420;2022-12-11T10:36:25;99806.47;;;9.44
15709;BMP180;7954;51.914;8.420;2022-12-11T10:38:55;99807.34;;;9.39
15709;BMP180;7954;51.914;8.420;2022-12-11T10:41:33;99807.16;;;9.43
15709;BMP180;7954;51.914;8.420;2022-12-11T10:44:13;99811.31;;;9.48
15709;BMP180;7954;51.914;8.420;2022-12-11T10:46:44;99811.97;;;9.47
15709;BMP180;7954;51.914;8.420;2022-12-11T10:49:23;99810.63;;;9.49
15709;BMP180;7954;51.914;8.420;2022-12-11T10:51:53;99806.94;;;9.47
15709;BMP180;7954;51.914;8.420;2022-12-11T10:54:32;99809.72;;;9.48
15709;BMP180;7954;51.914;8.420;2022-12-11T10:57:04;99811.97;;;9.47
15709;BMP180;7954;51.914;8.420;2022-12-11T10:59:36;99815.66;;;9.49
15709;BMP180;7954;51.914;8.420;2022-12-11T11:02:17;99817.53;;;9.50
15709;BMP180;7954;51.914;8.420;2022-12-11T11:04:46;99808.59;;;9.52
15709;BMP180;7954;51.914;8.420;2022-12-11T11:07:19;99808.59;;;9.52
15709;BMP180;7954;51.914;8.420;2022-12-11T11:09:50;99800.34;;;9.53
15709;BMP180;7954;51.914;8.420;2022-12-11T11:12:22;99803.53;;;9.52
15709;BMP180;7954;51.914;8.420;2022-12-11T11:14:59;99802.44;;;9.55
15709;BMP180;7954;51.914;8.420;2022-12-11T11:17:29;99800.59;;;9.54
15709;BMP180;7954;51.914;8.420;2022-12-11T11:20:08;99795.63;;;9.59
15709;BMP180;7954;51.914;8.420;2022-12-11T11:22:43;99789.91;;;9.60
15709;BMP180;7954;51.914;8.420;2022-12-11T11:25:17;99785.09;;;9.62
15709;BMP180;7954;51.914;8.420;2022-12-11T11:27:51;99781.63;;;9.61
15709;BMP180;7954;51.914;8.420;2022-12-11T11:30:22;99781.16;;;9.58
15709;BMP180;7954;51.914;8.420;2022-12-11T11:32:53;99785.31;;;9.58
15709;BMP180;7954;51.914;8.420;2022-12-11T11:35:24;99783.22;;;9.56
15709;BMP180;7954;51.914;8.420;2022-12-11T11:37:57;99785.53;;;9.59
15709;BMP180;7954;51.914;8.420;2022-12-11T11:40:30;99789.91;;;9.60
15709;BMP180;7954;51.914;8.420;2022-12-11T11:43:05;99783.72;;;9.64
15709;BMP180;7954;51.914;8.420;2022-12-11T11:45:42;99778.75;;;9.69
15709;BMP180;7954;51.914;8.420;2022-12-11T11:48:19;99772.16;;;9.75
15709;BMP180;7954;51.914;8.420;2022-12-11T11:50:51;99769.41;;;9.79
15709;BMP180;7954;51.914;8.420;2022-12-11T11:53:24;99770.78;;;9.77
15709;BMP180;7954;51.914;8.420;2022-12-11T11:56:02;99768.69;;;9.75
15709;BMP180;7954;51.914;8.420;2022-12-11T11:58:38;99769.63;;;9.75
15709;BMP180;7954;51.914;8.420;2022-12-11T12:01:12;99764.75;;;9.71
15709;BMP180;7954;51.914;8.420;2022-12-11T12:03:43;99767.25;;;9.66
15709;BMP180;7954;51.914;8.420;2022-12-11T12:06:18;99775.06;;;9.67
15709;BMP180;7954;51.914;8.420;2022-12-11T12:08:54;99774.38;;;9.68
15709;BMP180;7954;51.914;8.420;2022-12-11T12:11:32;99771.19;;;9.69
15709;BMP180;7954;51.914;8.420;2022-12-11T12:14:12;99764.53;;;9.70
15709;BMP180;7954;51.914;8.420;2022-12-11T12:17:07;99760.66;;;9.72
15709;BMP180;7954;51.914;8.420;2022-12-11T12:19:50;99767.28;;;9.71
15709;BMP180;7954;51.914;8.420;2022-12-11T12:22:32;99775.78;;;9.72
15709;BMP180;7954;51.914;8.420;2022-12-11T12:25:13;99769.38;;;9.74
15709;BMP180;7954;51.914;8.420;2022-12-11T12:27:52;99765.94;;;9.73
15709;BMP180;7954;51.914;8.420;2022-12-11T12:30:23;99772.16;;;9.75
15709;BMP180;7954;51.914;8.420;2022-12-11T12:33:01;99769.56;;;9.70
15709;BMP180;7954;51.914;8.420;2022-12-11T12:35:37;99765.63;;;9.66
15709;BMP180;7954;51.914;8.420;2022-12-11T12:38:13;99761.78;;;9.68
15709;BMP180;7954;51.914;8.420;2022-12-11T12:40:52;99765.94;;;9.73
15709;BMP180;7954;51.914;8.420;2022-12-11T12:43:40;99764.09;;;9.72
15709;BMP180;7954;51.914;8.420;2022-12-11T12:46:20;99766.84;;;9.74
15709;BMP180;7954;51.914;8.420;2022-12-11T12:48:51;99754.00;;;9.72
15709;BMP180;7954;51.914;8.420;2022-12-11T12:51:20;99758.84;;;9.76
15709;BMP180;7954;51.914;8.420;2022-12-11T12:53:53;99758.84;;;9.76
15709;BMP180;7954;51.914;8.420;2022-12-11T12:56:22;99751.94;;;9.70
15709;BMP180;7954;51.914;8.420;2022-12-11T12:58:53;99751.94;;;9.70
15709;BMP180;7954;51.914;8.420;2022-12-11T13:01:22;99750.34;;;9.70
15709;BMP180;7954;51.914;8.420;2022-12-11T13:03:54;99752.91;;;9.76
15709;BMP180;7954;51.914;8.420;2022-12-11T13:06:34;99751.28;;;9.76
15709;BMP180;7954;51.914;8.420;2022-12-11T13:09:12;99734.53;;;9.71
15709;BMP180;7954;51.914;8.420;2022-12-11T13:11:42;99735.91;;;9.69
15709;BMP180;7954;51.914;8.420;2022-12-11T13:14:27;99733.38;;;9.69
15709;BMP180;7954;51.914;8.420;2022-12-11T13:17:06;99732.00;;;9.71
15709;BMP180;7954;51.914;8.420;2022-12-11T13:19:36;99734.72;;;9.67
15709;BMP180;7954;51.914;8.420;2022-12-11T13:22:21;99732.22;;;9.67
15709;BMP180;7954;51.914;8.420;2022-12-11T13:24:57;99731.53;;;9.68
15709;BMP180;7954;51.914;8.420;2022-12-11T13:27:37;99738.44;;;9.75
15709;BMP180;7954;51.914;8.420;2022-12-11T13:30:20;99737.09;;;9.77
15709;BMP180;7954;51.914;8.420;2022-12-11T13:32:57;99738.44;;;9.75
15709;BMP180;7954;51.914;8.420;2022-12-11T13:35:27;99736.59;;;9.74
15709;BMP180;7954;51.914;8.420;2022-12-11T13:38:02;99736.13;;;9.71
15709;BMP180;7954;51.914;8.420;2022-12-11T13:40:37;99731.56;;;9.74
15709;BMP180;7954;51.914;8.420;2022-12-11T13:43:08;99729.97;;;9.74
15709;BMP180;7954;51.914;8.420;2022-12-11T13:45:47;99736.22;;;9.82
15709;BMP180;7954;51.914;8.420;2022-12-11T13:48:20;99737.13;;;9.82
15709;BMP180;7954;51.914;8.420;2022-12-11T13:50:50;99739.19;;;9.79
15709;BMP180;7954;51.914;8.420;2022-12-11T13:53:19;99751.28;;;9.76
15709;BMP180;7954;51.914;8.420;2022-12-11T13:55:55;99748.09;;;9.77
15709;BMP180;7954;51.914;8.420;2022-12-11T13:58:24;99753.34;;;9.73
15709;BMP180;7954;51.914;8.420;2022-12-11T14:01:01;99756.59;;;9.78
15709;BMP180;7954;51.914;8.420;2022-12-11T14:03:32;99756.16;;;9.80
15709;BMP180;7954;51.914;8.420;2022-12-11T14:06:00;99758.16;;;9.77
15709;BMP180;7954;51.914;8.420;2022-12-11T14:08:33;99765.94;;;9.73
15709;BMP180;7954;51.914;8.420;2022-12-11T14:11:02;99762.00;;;9.70
15709;BMP180;7954;51.914;8.420;2022-12-11T14:13:33;99766.34;;;9.65
15709;BMP180;7954;51.914;8.420;2022-12-11T14:16:05;99767.47;;;9.62
15709;BMP180;7954;51.914;8.420;2022-12-11T14:18:35;99759.41;;;9.59
15709;BMP180;7954;51.914;8.420;2022-12-11T14:21:05;99765.84;;;9.62
15709;BMP180;7954;51.914;8.420;2022-12-11T14:23:34;99758.09;;;9.66
15709;BMP180;7954;51.914;8.420;2022-12-11T14:26:14;99757.91;;;9.70
15709;BMP180;7954;51.914;8.420;2022-12-11T14:28:43;99760.91;;;9.73
15709;BMP180;7954;51.914;8.420;2022-12-11T14:31:15;99767.28;;;9.71
15709;BMP180;7954;51.914;8.420;2022-12-11T14:33:50;99765.06;;;9.78
15709;BMP180;7954;51.914;8.420;2022-12-11T14:36:20;99762.31;;;9.77
15709;BMP180;7954;51.914;8.420;2022-12-11T14:38:53;99764.59;;;9.75
15709;BMP180;7954;51.914;8.420;2022-12-11T14:41:24;99757.63;;;9.69
15709;BMP180;7954;51.914;8.420;2022-12-11T14:43:56;99764.50;;;9.64
15709;BMP180;7954;51.914;8.420;2022-12-11T14:46:35;99759.03;;;9.67
15709;BMP180;7954;51.914;8.420;2022-12-11T14:49:13;99759.94;;;9.67
15709;BMP180;7954;51.914;8.420;2022-12-11T14:51:43;99765.91;;;9.68
15709;BMP180;7954;51.914;8.420;2022-12-11T14:54:25;99761.09;;;9.69
15709;BMP180;7954;51.914;8.420;2022-12-11T14:56:55;99760.66;;;9.72
15709;BMP180;7954;51.914;8.420;2022-12-11T14:59:24;99766.84;;;9.74
15709;BMP180;7954;51.914;8.420;2022-12-11T15:02:02;99763.22;;;9.77